Time;durP1;ratioP1;P1;durP2;ratioP2;P2;SDS_P1;SDS_P2;PMS_P1;PMS_P2;Temp;Humidity;BMP_temperature;BMP_pressure;BME280_temperature;BME280_humidity;BME280_pressure;Samples;Min_cycle;Max_cycle;Signal;HPM_P1;HPM_P2
2022/10/26 00:00:44;;;;;;;;;;;12.30;99.90;;;;;;5026575;28;19972;-64
2022/10/26 00:03:12;;;;;;;;;;;12.30;99.90;;;;;;5027631;28;19969;-64
2022/10/26 00:05:41;;;;;;;;;;;12.30;99.90;;;;;;5029318;28;19964;-63
2022/10/26 00:08:09;;;;;;;;;;;12.40;99.90;;;;;;5028134;28;20437;-63
2022/10/26 00:10:38;;;;;;;;;;;12.40;99.90;;;;;;5029683;28;19964;-64
2022/10/26 00:13:08;;;;;;;;;;;12.50;99.90;;;;;;5028378;28;19975;-63
2022/10/26 00:15:39;;;;;;;;;;;12.50;99.90;;;;;;5029053;28;19971;-64
2022/10/26 00:18:06;;;;;;;;;;;12.60;99.90;;;;;;5027855;28;19965;-64
2022/10/26 00:20:34;;;;;;;;;;;12.60;99.90;;;;;;5028542;28;19964;-64
2022/10/26 00:23:03;;;;;;;;;;;12.60;99.90;;;;;;5024343;28;19975;-63
2022/10/26 00:25:31;;;;;;;;;;;12.50;99.90;;;;;;5020661;28;19973;-64
2022/10/26 00:27:59;;;;;;;;;;;12.50;99.90;;;;;;5029064;28;20337;-64
2022/10/26 00:30:26;;;;;;;;;;;12.50;99.90;;;;;;5028048;28;19975;-65
2022/10/26 00:32:54;;;;;;;;;;;12.50;99.90;;;;;;5028719;28;19964;-63
2022/10/26 00:35:22;;;;;;;;;;;12.50;99.90;;;;;;5059808;23;19975;-63
2022/10/26 00:38:11;;;;;;;;;;;12.40;99.90;;;;;;5057409;28;19967;-64
2022/10/26 00:40:38;;;;;;;;;;;12.50;99.90;;;;;;5059127;28;20429;-64
2022/10/26 00:43:09;;;;;;;;;;;12.50;99.90;;;;;;5053660;28;19966;-64
2022/10/26 00:45:37;;;;;;;;;;;12.50;99.90;;;;;;5055316;28;20341;-64
2022/10/26 00:48:06;;;;;;;;;;;12.50;99.90;;;;;;5048994;28;19968;-64
2022/10/26 00:50:36;;;;;;;;;;;12.50;99.90;;;;;;5048190;28;20344;-64
2022/10/26 00:53:06;;;;;;;;;;;12.60;99.90;;;;;;5045472;28;19964;-65
2022/10/26 00:55:48;;;;;;;;;;;12.60;99.90;;;;;;5046184;28;20326;-64
2022/10/26 00:58:16;;;;;;;;;;;12.60;99.90;;;;;;5050020;28;19975;-65
2022/10/26 01:00:44;;;;;;;;;;;12.60;99.90;;;;;;5049879;28;19964;-65
2022/10/26 01:03:11;;;;;;;;;;;12.50;99.90;;;;;;5046307;28;19972;-64
2022/10/26 01:05:41;;;;;;;;;;;12.60;99.90;;;;;;5049772;28;20803;-64
2022/10/26 01:08:09;;;;;;;;;;;12.60;99.90;;;;;;5063352;28;19972;-64
2022/10/26 01:10:40;;;;;;;;;;;12.60;99.90;;;;;;5044426;28;19970;-64
2022/10/26 01:13:07;;;;;;;;;;;12.60;99.90;;;;;;5070814;28;20388;-65
2022/10/26 01:15:38;;;;;;;;;;;12.70;99.90;;;;;;5042072;28;19964;-64
2022/10/26 01:18:10;;;;;;;;;;;12.70;99.90;;;;;;5046716;28;19968;-65
2022/10/26 01:20:55;;;;;;;;;;;12.70;99.90;;;;;;5050861;28;19963;-65
2022/10/26 01:23:26;;;;;;;;;;;12.60;99.90;;;;;;5043737;28;20448;-65
2022/10/26 01:26:06;;;;;;;;;;;12.80;99.90;;;;;;5041725;28;19964;-65
2022/10/26 01:28:39;;;;;;;;;;;12.80;99.90;;;;;;5044275;28;19964;-65
2022/10/26 01:31:11;;;;;;;;;;;12.70;99.90;;;;;;5043577;28;19968;-64
2022/10/26 01:33:43;;;;;;;;;;;12.80;99.90;;;;;;5047048;28;19975;-64
2022/10/26 01:36:12;;;;;;;;;;;12.80;99.90;;;;;;5047510;28;19968;-65
2022/10/26 01:38:44;;;;;;;;;;;12.80;99.90;;;;;;5048091;28;19972;-64
2022/10/26 01:41:13;;;;;;;;;;;12.70;99.90;;;;;;5048666;28;19968;-64
2022/10/26 01:43:42;;;;;;;;;;;12.70;99.90;;;;;;5054254;28;19978;-64
2022/10/26 01:46:11;;;;;;;;;;;12.80;99.90;;;;;;5069399;28;19972;-64
2022/10/26 01:48:41;;;;;;;;;;;12.90;99.90;;;;;;5074850;28;19971;-63
2022/10/26 01:51:09;;;;;;;;;;;12.90;99.90;;;;;;5061631;28;19968;-64
2022/10/26 01:53:41;;;;;;;;;;;12.90;99.90;;;;;;5054388;28;19991;-64
2022/10/26 01:56:12;;;;;;;;;;;13.00;99.90;;;;;;5054856;28;19974;-64
2022/10/26 01:58:59;;;;;;;;;;;13.00;99.90;;;;;;5038076;28;19971;-63
2022/10/26 02:01:34;;;;;;;;;;;12.90;99.90;;;;;;5044218;28;20003;-63
2022/10/26 02:04:07;;;;;;;;;;;12.90;99.90;;;;;;5050783;28;20063;-63
2022/10/26 02:06:39;;;;;;;;;;;12.80;99.90;;;;;;5046700;28;19976;-63
2022/10/26 02:09:12;;;;;;;;;;;12.80;99.90;;;;;;5049844;28;19968;-63
2022/10/26 02:11:41;;;;;;;;;;;12.80;99.90;;;;;;5053992;28;20437;-64
2022/10/26 02:14:13;;;;;;;;;;;12.70;99.90;;;;;;5055096;28;19975;-63
2022/10/26 02:16:52;;;;;;;;;;;12.80;99.90;;;;;;5042038;28;20484;-63
2022/10/26 02:19:25;;;;;;;;;;;12.70;99.90;;;;;;5055145;28;20055;-64
2022/10/26 02:21:54;;;;;;;;;;;12.70;99.90;;;;;;5047667;28;19964;-64
2022/10/26 02:24:23;;;;;;;;;;;12.70;99.90;;;;;;5033814;28;19992;-64
2022/10/26 02:26:52;;;;;;;;;;;12.70;99.90;;;;;;5066139;28;19964;-63
2022/10/26 02:29:20;;;;;;;;;;;12.70;99.90;;;;;;5074307;28;20511;-64
2022/10/26 02:31:49;;;;;;;;;;;12.60;99.90;;;;;;5047974;28;19971;-64
2022/10/26 02:34:20;;;;;;;;;;;12.60;99.90;;;;;;5046916;28;20448;-64
2022/10/26 02:36:49;;;;;;;;;;;12.60;99.90;;;;;;5046352;28;19970;-64
2022/10/26 02:39:17;;;;;;;;;;;12.60;99.90;;;;;;5047139;28;19976;-64
2022/10/26 02:41:45;;;;;;;;;;;12.60;99.90;;;;;;5047157;28;20055;-64
2022/10/26 02:44:16;;;;;;;;;;;12.70;99.90;;;;;;5045542;28;20381;-64
2022/10/26 02:46:44;;;;;;;;;;;12.60;99.90;;;;;;5046684;28;20067;-64
2022/10/26 02:49:12;;;;;;;;;;;12.60;99.90;;;;;;5047085;28;20489;-64
2022/10/26 02:51:44;;;;;;;;;;;12.60;99.90;;;;;;5047351;28;20047;-64
2022/10/26 02:54:15;;;;;;;;;;;12.70;99.90;;;;;;5046016;28;19972;-64
2022/10/26 02:56:45;;;;;;;;;;;12.70;99.90;;;;;;5046329;28;20421;-64
2022/10/26 02:59:14;;;;;;;;;;;12.70;99.90;;;;;;5046474;28;20022;-63
2022/10/26 03:01:42;;;;;;;;;;;12.60;99.90;;;;;;5033277;28;19973;-63
2022/10/26 03:04:10;;;;;;;;;;;12.60;99.90;;;;;;5048279;28;19974;-63
2022/10/26 03:06:38;;;;;;;;;;;12.60;99.90;;;;;;5044906;28;19971;-64
2022/10/26 03:09:07;;;;;;;;;;;12.60;99.90;;;;;;5048357;28;19972;-64
2022/10/26 03:11:34;;;;;;;;;;;12.60;99.90;;;;;;5049072;28;19968;-64
2022/10/26 03:14:02;;;;;;;;;;;12.60;99.90;;;;;;5043735;28;20587;-64
2022/10/26 03:16:30;;;;;;;;;;;12.60;99.90;;;;;;5049111;28;19987;-64
2022/10/26 03:18:58;;;;;;;;;;;12.60;99.90;;;;;;5049147;28;19980;-64
2022/10/26 03:21:25;;;;;;;;;;;12.60;99.90;;;;;;5046839;28;19975;-64
2022/10/26 03:23:53;;;;;;;;;;;12.60;99.90;;;;;;5040179;28;20025;-64
2022/10/26 03:26:22;;;;;;;;;;;12.60;99.90;;;;;;5045873;28;19988;-64
2022/10/26 03:28:50;;;;;;;;;;;12.60;99.90;;;;;;5047478;28;19964;-64
2022/10/26 03:31:17;;;;;;;;;;;12.60;99.90;;;;;;5049362;28;20006;-64
2022/10/26 03:33:45;;;;;;;;;;;12.60;99.90;;;;;;5051450;28;19972;-64
2022/10/26 03:36:13;;;;;;;;;;;12.60;99.90;;;;;;5048597;28;19975;-64
2022/10/26 03:38:40;;;;;;;;;;;12.70;99.90;;;;;;5050420;28;19970;-63
2022/10/26 03:41:08;;;;;;;;;;;12.70;99.90;;;;;;5050443;28;20063;-64
2022/10/26 03:43:37;;;;;;;;;;;12.70;99.90;;;;;;5050536;28;20059;-64
2022/10/26 03:46:05;;;;;;;;;;;12.70;99.90;;;;;;5051189;28;19972;-63
2022/10/26 03:48:33;;;;;;;;;;;12.80;99.90;;;;;;5058757;28;20451;-64
2022/10/26 03:51:00;;;;;;;;;;;12.80;99.90;;;;;;5051302;28;20368;-64
2022/10/26 03:53:28;;;;;;;;;;;12.80;99.90;;;;;;5047489;28;19974;-64
2022/10/26 03:55:56;;;;;;;;;;;12.70;99.90;;;;;;5050967;28;20067;-64
2022/10/26 03:58:23;;;;;;;;;;;12.80;99.90;;;;;;5049283;28;20567;-64
2022/10/26 04:00:53;;;;;;;;;;;12.80;99.90;;;;;;5044841;28;20340;-64
2022/10/26 04:03:21;;;;;;;;;;;12.80;99.90;;;;;;5050393;28;19982;-64
2022/10/26 04:05:49;;;;;;;;;;;12.90;99.90;;;;;;5049015;28;20051;-64
2022/10/26 04:08:17;;;;;;;;;;;12.90;99.90;;;;;;5049694;28;19974;-63
2022/10/26 04:10:45;;;;;;;;;;;13.10;99.90;;;;;;5047369;28;20417;-64
2022/10/26 04:13:13;;;;;;;;;;;13.20;99.90;;;;;;5049853;28;20341;-65
2022/10/26 04:15:42;;;;;;;;;;;13.20;99.90;;;;;;5047039;28;19999;-64
2022/10/26 04:18:11;;;;;;;;;;;13.40;99.90;;;;;;5046173;28;19964;-64
2022/10/26 04:20:41;;;;;;;;;;;13.40;99.90;;;;;;5034543;28;19968;-64
2022/10/26 04:23:10;;;;;;;;;;;13.50;99.90;;;;;;5049896;28;19979;-65
2022/10/26 04:25:38;;;;;;;;;;;13.60;99.90;;;;;;5043652;28;20010;-63
2022/10/26 04:28:06;;;;;;;;;;;13.60;99.90;;;;;;5050255;28;20071;-64
2022/10/26 04:30:34;;;;;;;;;;;13.60;99.90;;;;;;5045683;28;19971;-64
2022/10/26 04:33:02;;;;;;;;;;;13.60;99.90;;;;;;5047840;28;19974;-64
2022/10/26 04:35:31;;;;;;;;;;;13.60;99.90;;;;;;5047613;28;20352;-64
2022/10/26 04:37:59;;;;;;;;;;;13.40;99.90;;;;;;5050790;28;19972;-64
2022/10/26 04:40:27;;;;;;;;;;;13.30;99.90;;;;;;5048591;28;19968;-64
2022/10/26 04:42:55;;;;;;;;;;;13.30;99.90;;;;;;5044496;28;20429;-64
2022/10/26 04:45:23;;;;;;;;;;;13.30;99.90;;;;;;5041751;28;19994;-64
2022/10/26 04:47:58;;;;;;;;;;;13.30;99.90;;;;;;5042777;28;19993;-64
2022/10/26 04:50:26;;;;;;;;;;;13.10;99.90;;;;;;5041442;28;20045;-64
2022/10/26 04:52:56;;;;;;;;;;;13.00;99.90;;;;;;5040142;28;20059;-64
2022/10/26 04:55:24;;;;;;;;;;;12.80;99.90;;;;;;5042777;28;19970;-64
2022/10/26 04:57:51;;;;;;;;;;;12.70;99.90;;;;;;5044249;28;19968;-64
2022/10/26 05:00:25;;;;;;;;;;;12.70;99.90;;;;;;5041609;28;19964;-64
2022/10/26 05:02:58;;;;;;;;;;;12.60;99.90;;;;;;5040408;28;19973;-63
2022/10/26 05:05:26;;;;;;;;;;;12.60;99.90;;;;;;5040625;28;19978;-64
2022/10/26 05:07:54;;;;;;;;;;;12.50;99.90;;;;;;5040541;28;20437;-64
2022/10/26 05:10:23;;;;;;;;;;;12.50;99.90;;;;;;5042222;28;20422;-64
2022/10/26 05:12:51;;;;;;;;;;;12.50;99.90;;;;;;5043889;28;19963;-63
2022/10/26 05:15:18;;;;;;;;;;;12.60;99.90;;;;;;5041023;28;21367;-64
2022/10/26 05:17:46;;;;;;;;;;;12.60;99.90;;;;;;5043322;28;19985;-64
2022/10/26 05:20:14;;;;;;;;;;;12.70;99.90;;;;;;5043853;28;19972;-63
2022/10/26 05:22:42;;;;;;;;;;;12.80;99.90;;;;;;5045006;28;20006;-64
2022/10/26 05:25:10;;;;;;;;;;;12.90;99.90;;;;;;5043245;28;19968;-64
2022/10/26 05:27:39;;;;;;;;;;;13.00;99.90;;;;;;5043930;28;19971;-64
2022/10/26 05:30:07;;;;;;;;;;;13.00;99.90;;;;;;5042343;28;20543;-64
2022/10/26 05:32:35;;;;;;;;;;;13.10;99.90;;;;;;5041294;28;19975;-64
2022/10/26 05:35:03;;;;;;;;;;;13.20;99.90;;;;;;5049893;28;19968;-63
2022/10/26 05:37:30;;;;;;;;;;;13.30;99.90;;;;;;5047946;28;19971;-63
2022/10/26 05:39:58;;;;;;;;;;;13.40;99.90;;;;;;5048657;28;19968;-63
2022/10/26 05:42:26;;;;;;;;;;;13.50;99.90;;;;;;5038059;28;20179;-63
2022/10/26 05:44:55;;;;;;;;;;;13.50;99.90;;;;;;5046362;28;19972;-62
2022/10/26 05:47:23;;;;;;;;;;;13.50;99.90;;;;;;5049227;28;19972;-64
2022/10/26 05:49:50;;;;;;;;;;;13.40;99.90;;;;;;5044397;28;19964;-63
2022/10/26 05:52:18;;;;;;;;;;;13.40;99.90;;;;;;5048623;28;19971;-63
2022/10/26 05:54:46;;;;;;;;;;;13.40;99.90;;;;;;5048553;28;19971;-63
2022/10/26 05:57:14;;;;;;;;;;;13.40;99.90;;;;;;5044988;28;20361;-64
2022/10/26 05:59:42;;;;;;;;;;;13.40;99.90;;;;;;5048500;28;19967;-64
2022/10/26 06:02:15;;;;;;;;;;;13.50;99.90;;;;;;5044798;28;19972;-64
2022/10/26 06:04:46;;;;;;;;;;;13.50;99.90;;;;;;5033741;28;20492;-64
2022/10/26 06:07:15;;;;;;;;;;;13.50;99.90;;;;;;5048775;28;20069;-64
2022/10/26 06:09:43;;;;;;;;;;;13.40;99.90;;;;;;5049427;28;19964;-64
2022/10/26 06:12:12;;;;;;;;;;;13.10;99.90;;;;;;5048374;28;20003;-64
2022/10/26 06:14:43;;;;;;;;;;;13.00;99.90;;;;;;5041190;28;19968;-64
2022/10/26 06:17:29;;;;;;;;;;;13.00;99.90;;;;;;5046374;28;19994;-64
2022/10/26 06:20:09;;;;;;;;;;;13.10;99.90;;;;;;5050259;28;19979;-64
2022/10/26 06:22:48;;;;;;;;;;;13.10;99.90;;;;;;5052198;28;20007;-64
2022/10/26 06:25:22;;;;;;;;;;;13.20;99.90;;;;;;5051633;28;20071;-63
2022/10/26 06:27:56;;;;;;;;;;;13.30;99.90;;;;;;5050107;28;19968;-64
2022/10/26 06:30:24;;;;;;;;;;;13.40;99.90;;;;;;5054696;28;20059;-64
2022/10/26 06:32:54;;;;;;;;;;;13.50;99.90;;;;;;5062157;28;20409;-64
2022/10/26 06:35:44;;;;;;;;;;;13.60;99.90;;;;;;5040837;28;20079;-64
2022/10/26 06:38:14;;;;;;;;;;;13.60;99.90;;;;;;5001493;28;20054;-64
2022/10/26 06:40:43;;;;;;;;;;;13.60;99.90;;;;;;5010074;28;19965;-64
2022/10/26 06:43:12;;;;;;;;;;;13.60;99.90;;;;;;5013068;28;19990;-64
2022/10/26 06:45:41;;;;;;;;;;;13.70;99.90;;;;;;4996777;28;20059;-64
2022/10/26 06:48:10;;;;;;;;;;;13.80;99.90;;;;;;4993082;28;19985;-64
2022/10/26 06:50:41;;;;;;;;;;;13.70;99.90;;;;;;4986236;28;20438;-64
2022/10/26 06:53:18;;;;;;;;;;;13.80;99.90;;;;;;4993677;28;19964;-64
2022/10/26 06:55:48;;;;;;;;;;;13.80;99.90;;;;;;4986038;28;19965;-64
2022/10/26 06:58:17;;;;;;;;;;;13.80;99.90;;;;;;4988267;28;20334;-63
2022/10/26 07:00:46;;;;;;;;;;;13.90;99.90;;;;;;4988916;28;20477;-64
2022/10/26 07:03:14;;;;;;;;;;;13.90;99.90;;;;;;4978788;28;20425;-64
2022/10/26 07:05:42;;;;;;;;;;;14.00;99.90;;;;;;4990173;28;19965;-64
2022/10/26 07:08:10;;;;;;;;;;;14.00;99.90;;;;;;4985540;28;20020;-63
2022/10/26 07:10:41;;;;;;;;;;;14.10;99.90;;;;;;4982638;28;19975;-63
2022/10/26 07:13:09;;;;;;;;;;;14.10;99.90;;;;;;4987308;28;19973;-63
2022/10/26 07:15:38;;;;;;;;;;;14.00;99.90;;;;;;4991762;28;19995;-64
2022/10/26 07:18:06;;;;;;;;;;;13.90;99.90;;;;;;4996090;28;19969;-64
2022/10/26 07:20:35;;;;;;;;;;;13.80;99.90;;;;;;4981772;28;19970;-62
2022/10/26 07:23:05;;;;;;;;;;;13.80;99.90;;;;;;4987903;28;20065;-65
2022/10/26 07:25:34;;;;;;;;;;;13.60;99.90;;;;;;4989861;28;20373;-64
2022/10/26 07:28:03;;;;;;;;;;;13.60;99.90;;;;;;4991658;28;20063;-64
2022/10/26 07:30:31;;;;;;;;;;;13.60;99.90;;;;;;4992136;28;19969;-64
2022/10/26 07:32:59;;;;;;;;;;;13.60;99.90;;;;;;4992032;28;19969;-64
2022/10/26 07:35:27;;;;;;;;;;;13.70;99.90;;;;;;4984638;28;19969;-64
2022/10/26 07:37:58;;;;;;;;;;;13.80;99.90;;;;;;4991812;28;19969;-64
2022/10/26 07:40:26;;;;;;;;;;;13.90;99.90;;;;;;4987711;28;19965;-64
2022/10/26 07:42:56;;;;;;;;;;;14.10;99.90;;;;;;4983313;28;19972;-64
2022/10/26 07:45:26;;;;;;;;;;;14.20;99.90;;;;;;4983738;28;19969;-64
2022/10/26 07:47:54;;;;;;;;;;;14.30;99.90;;;;;;4991283;28;19965;-64
2022/10/26 07:50:22;;;;;;;;;;;14.40;99.90;;;;;;4989013;28;19965;-64
2022/10/26 07:52:49;;;;;;;;;;;14.50;99.90;;;;;;4987493;28;20008;-64
2022/10/26 07:55:19;;;;;;;;;;;14.50;99.90;;;;;;4990044;28;19969;-64
2022/10/26 07:57:46;;;;;;;;;;;14.60;99.90;;;;;;4986001;28;20012;-64
2022/10/26 08:00:21;;;;;;;;;;;14.70;99.90;;;;;;4992104;28;19977;-64
2022/10/26 08:02:50;;;;;;;;;;;14.80;99.90;;;;;;4985501;28;20024;-64
2022/10/26 08:05:18;;;;;;;;;;;14.80;99.90;;;;;;4985949;28;19969;-63
2022/10/26 08:07:45;;;;;;;;;;;14.90;99.90;;;;;;4987130;28;19973;-63
2022/10/26 08:10:14;;;;;;;;;;;14.90;99.90;;;;;;4983631;28;20020;-63
2022/10/26 08:12:42;;;;;;;;;;;15.00;99.90;;;;;;4982665;28;20434;-63
2022/10/26 08:15:10;;;;;;;;;;;15.10;99.90;;;;;;4983000;28;19973;-64
2022/10/26 08:17:38;;;;;;;;;;;15.10;99.90;;;;;;4990353;28;20004;-64
2022/10/26 08:20:08;;;;;;;;;;;15.00;99.90;;;;;;4990012;28;19969;-64
2022/10/26 08:22:36;;;;;;;;;;;14.90;99.90;;;;;;4990077;28;19980;-63
2022/10/26 08:25:03;;;;;;;;;;;14.90;99.90;;;;;;4983125;28;19965;-64
2022/10/26 08:27:32;;;;;;;;;;;14.80;99.90;;;;;;4981885;28;19991;-63
2022/10/26 08:30:01;;;;;;;;;;;14.70;99.90;;;;;;4988620;28;19969;-64
2022/10/26 08:32:29;;;;;;;;;;;14.70;99.90;;;;;;4987236;28;20051;-63
2022/10/26 08:34:57;;;;;;;;;;;14.60;99.90;;;;;;4982131;28;19970;-64
2022/10/26 08:37:26;;;;;;;;;;;14.70;99.90;;;;;;4987439;28;20409;-64
2022/10/26 08:39:54;;;;;;;;;;;14.60;99.90;;;;;;4978019;28;20619;-63
2022/10/26 08:42:28;;;;;;;;;;;14.60;99.90;;;;;;4986196;28;19971;-64
2022/10/26 08:44:59;;;;;;;;;;;14.70;99.90;;;;;;4993266;28;20115;-64
2022/10/26 08:47:29;;;;;;;;;;;14.70;99.90;;;;;;4986690;28;19967;-64
2022/10/26 08:49:59;;;;;;;;;;;14.70;99.90;;;;;;4991063;28;19973;-63
2022/10/26 08:52:31;;;;;;;;;;;14.70;99.90;;;;;;4980527;28;19978;-63
2022/10/26 08:55:00;;;;;;;;;;;14.70;99.90;;;;;;4981465;28;20462;-64
2022/10/26 08:57:30;;;;;;;;;;;14.70;99.90;;;;;;4990169;28;19976;-63
2022/10/26 09:00:00;;;;;;;;;;;14.70;99.90;;;;;;4992619;28;20563;-64
2022/10/26 09:02:27;;;;;;;;;;;14.70;99.90;;;;;;4991170;28;19972;-64
2022/10/26 09:04:57;;;;;;;;;;;14.70;99.90;;;;;;4980905;28;19977;-64
2022/10/26 09:07:33;;;;;;;;;;;14.80;99.90;;;;;;4985171;28;20007;-63
2022/10/26 09:10:05;;;;;;;;;;;15.00;99.90;;;;;;4984471;28;19992;-64
2022/10/26 09:12:39;;;;;;;;;;;15.30;99.90;;;;;;4985219;28;19973;-64
2022/10/26 09:15:12;;;;;;;;;;;15.50;99.90;;;;;;4991762;28;20080;-64
2022/10/26 09:17:43;;;;;;;;;;;16.00;99.90;;;;;;4990857;28;19996;-63
2022/10/26 09:20:19;;;;;;;;;;;16.20;99.90;;;;;;4978736;28;19969;-64
2022/10/26 09:22:50;;;;;;;;;;;16.70;99.90;;;;;;4985804;28;20063;-64
2022/10/26 09:25:20;;;;;;;;;;;17.00;99.90;;;;;;4991381;28;19973;-64
2022/10/26 09:27:50;;;;;;;;;;;16.90;99.90;;;;;;4990219;28;19974;-64
2022/10/26 09:30:19;;;;;;;;;;;16.90;99.90;;;;;;4991353;28;19976;-63
2022/10/26 09:32:48;;;;;;;;;;;17.20;99.90;;;;;;4989804;28;20060;-64
2022/10/26 09:35:18;;;;;;;;;;;17.60;99.90;;;;;;4990356;28;19976;-64
2022/10/26 09:37:50;;;;;;;;;;;18.20;99.90;;;;;;4974235;28;20365;-64
2022/10/26 09:40:21;;;;;;;;;;;18.40;99.90;;;;;;4971422;28;20022;-65
2022/10/26 09:42:51;;;;;;;;;;;18.90;99.90;;;;;;4991292;28;19970;-64
2022/10/26 09:45:22;;;;;;;;;;;19.50;99.90;;;;;;4990283;28;20387;-64
2022/10/26 09:47:51;;;;;;;;;;;19.40;99.90;;;;;;4984688;28;20054;-64
2022/10/26 09:50:22;;;;;;;;;;;19.70;99.90;;;;;;4990508;28;20475;-64
2022/10/26 09:52:51;;;;;;;;;;;19.70;99.90;;;;;;4971391;28;20054;-64
2022/10/26 09:55:21;;;;;;;;;;;19.70;99.90;;;;;;4989718;28;20494;-64
2022/10/26 09:57:51;;;;;;;;;;;19.70;99.90;;;;;;4989378;28;19970;-64
2022/10/26 10:00:20;;;;;;;;;;;19.50;99.90;;;;;;4994009;28;19978;-63
2022/10/26 10:02:50;;;;;;;;;;;19.00;99.90;;;;;;4993984;28;20023;-64
2022/10/26 10:05:22;;;;;;;;;;;18.60;99.90;;;;;;4987017;28;20353;-64
2022/10/26 10:08:14;;;;;;;;;;;18.60;99.90;;;;;;4982926;28;20476;-64
2022/10/26 10:10:53;;;;;;;;;;;18.60;99.90;;;;;;4987970;28;20048;-64
2022/10/26 10:13:22;;;;;;;;;;;18.40;99.90;;;;;;4992603;28;19964;-63
2022/10/26 10:15:54;;;;;;;;;;;18.40;99.90;;;;;;4982489;28;19986;-64
2022/10/26 10:18:23;;;;;;;;;;;18.60;99.90;;;;;;4994725;28;19974;-64
2022/10/26 10:20:51;;;;;;;;;;;18.90;99.90;;;;;;4993415;28;19987;-64
2022/10/26 10:23:26;;;;;;;;;;;19.50;99.90;;;;;;4994187;28;20053;-65
2022/10/26 10:26:04;;;;;;;;;;;19.70;99.90;;;;;;4986910;28;20372;-64
2022/10/26 10:28:33;;;;;;;;;;;20.20;99.90;;;;;;4989233;28;20058;-64
2022/10/26 10:31:02;;;;;;;;;;;20.60;99.90;;;;;;4989800;28;20421;-64
2022/10/26 10:33:37;;;;;;;;;;;20.70;99.90;;;;;;4987719;28;19964;-64
2022/10/26 10:36:07;;;;;;;;;;;20.40;99.90;;;;;;4986721;28;20016;-63
2022/10/26 10:38:40;;;;;;;;;;;20.00;99.90;;;;;;4984772;28;19964;-64
2022/10/26 10:41:16;;;;;;;;;;;19.60;99.90;;;;;;4991814;28;19965;-64
2022/10/26 10:43:45;;;;;;;;;;;19.40;99.90;;;;;;4982625;28;20398;-65
2022/10/26 10:46:17;;;;;;;;;;;19.30;99.90;;;;;;4979417;28;19968;-64
2022/10/26 10:48:47;;;;;;;;;;;19.40;99.90;;;;;;4986185;28;19965;-63
2022/10/26 10:51:18;;;;;;;;;;;19.90;99.90;;;;;;4980954;28;19965;-64
2022/10/26 10:53:48;;;;;;;;;;;20.40;99.90;;;;;;4995833;28;19964;-64
2022/10/26 10:56:37;;;;;;;;;;;21.00;99.90;;;;;;4976943;28;20445;-65
2022/10/26 10:59:18;;;;;;;;;;;21.30;99.90;;;;;;4984832;28;19964;-64
2022/10/26 11:01:48;;;;;;;;;;;21.30;99.90;;;;;;4981333;28;19968;-64
2022/10/26 11:04:32;;;;;;;;;;;21.30;99.90;;;;;;4980868;28;19975;-65
2022/10/26 11:07:03;;;;;;;;;;;21.30;99.90;;;;;;4986375;28;20059;-64
2022/10/26 11:09:33;;;;;;;;;;;21.60;99.90;;;;;;4985995;28;19965;-64
2022/10/26 11:12:03;;;;;;;;;;;21.50;99.90;;;;;;4992136;28;19991;-64
2022/10/26 11:14:32;;;;;;;;;;;21.40;99.90;;;;;;4988964;28;19964;-64
2022/10/26 11:17:04;;;;;;;;;;;21.20;99.90;;;;;;4984430;28;20448;-65
2022/10/26 11:19:33;;;;;;;;;;;21.00;99.90;;;;;;4992055;28;19968;-64
2022/10/26 11:22:04;;;;;;;;;;;20.80;99.90;;;;;;4992933;28;19967;-64
2022/10/26 11:24:35;;;;;;;;;;;20.60;99.90;;;;;;4982877;28;19968;-65
2022/10/26 11:27:06;;;;;;;;;;;20.50;99.90;;;;;;4991530;28;19975;-64
2022/10/26 11:29:38;;;;;;;;;;;20.40;99.90;;;;;;4982260;28;20614;-65
2022/10/26 11:32:14;;;;;;;;;;;20.30;99.90;;;;;;4993174;28;20059;-65
2022/10/26 11:34:45;;;;;;;;;;;20.10;99.90;;;;;;4978290;28;20063;-64
2022/10/26 11:37:16;;;;;;;;;;;19.90;99.90;;;;;;4974248;28;19968;-64
2022/10/26 11:39:46;;;;;;;;;;;19.60;99.90;;;;;;4969751;28;19968;-64
2022/10/26 11:42:20;;;;;;;;;;;19.40;99.90;;;;;;4963267;28;20487;-64
2022/10/26 11:44:50;;;;;;;;;;;19.40;99.90;;;;;;4975357;28;19979;-64
2022/10/26 11:47:22;;;;;;;;;;;19.30;99.90;;;;;;4965739;28;19972;-65
2022/10/26 11:49:52;;;;;;;;;;;19.20;99.90;;;;;;4960690;28;19983;-64
2022/10/26 11:52:21;;;;;;;;;;;19.20;99.90;;;;;;4972832;28;20504;-64
2022/10/26 11:54:53;;;;;;;;;;;19.00;99.90;;;;;;4960756;28;20059;-64
2022/10/26 11:57:21;;;;;;;;;;;19.10;99.90;;;;;;4960782;28;19974;-64
2022/10/26 11:59:51;;;;;;;;;;;19.20;99.90;;;;;;4970953;28;19975;-64
2022/10/26 12:02:20;;;;;;;;;;;19.10;99.90;;;;;;4962894;28;19975;-64
2022/10/26 12:04:50;;;;;;;;;;;19.20;99.90;;;;;;4957650;28;19971;-64
2022/10/26 12:07:21;;;;;;;;;;;19.30;99.90;;;;;;4963631;28;20591;-65
2022/10/26 12:09:50;;;;;;;;;;;19.40;99.90;;;;;;4966995;28;19964;-64
2022/10/26 12:12:21;;;;;;;;;;;19.30;99.90;;;;;;4965507;28;19995;-64
2022/10/26 12:14:52;;;;;;;;;;;19.30;99.90;;;;;;4972580;28;20444;-64
2022/10/26 12:17:22;;;;;;;;;;;19.40;99.90;;;;;;4957385;28;20462;-64
2022/10/26 12:19:53;;;;;;;;;;;19.40;99.90;;;;;;4973541;28;19964;-64
2022/10/26 12:22:23;;;;;;;;;;;19.40;99.90;;;;;;4966607;28;19990;-64
2022/10/26 12:25:06;;;;;;;;;;;19.50;99.90;;;;;;4965251;28;20003;-63
2022/10/26 12:27:51;;;;;;;;;;;19.50;99.90;;;;;;4967235;28;20072;-64
2022/10/26 12:30:23;;;;;;;;;;;19.70;99.90;;;;;;4962499;28;19964;-63
2022/10/26 12:32:52;;;;;;;;;;;19.80;99.90;;;;;;4962695;28;19989;-64
2022/10/26 12:35:32;;;;;;;;;;;19.90;99.90;;;;;;4968048;28;19967;-63
2022/10/26 12:38:00;;;;;;;;;;;20.00;99.90;;;;;;5030580;22;19974;-64
2022/10/26 12:40:42;;;;;;;;;;;20.20;99.90;;;;;;5030827;28;19971;-64
2022/10/26 12:43:33;;;;;;;;;;;20.40;99.90;;;;;;5033935;28;19982;-65
2022/10/26 12:46:19;;;;;;;;;;;20.50;99.90;;;;;;5033653;28;19975;-65
2022/10/26 12:48:47;;;;;;;;;;;20.40;99.90;;;;;;5029071;28;20456;-65
2022/10/26 12:51:38;;;;;;;;;;;20.60;99.90;;;;;;5030374;28;19975;-64
2022/10/26 12:54:15;;;;;;;;;;;20.60;99.90;;;;;;5027141;28;20418;-65
2022/10/26 12:56:50;;;;;;;;;;;20.60;99.90;;;;;;5032587;28;20030;-65
2022/10/26 12:59:22;;;;;;;;;;;20.50;99.90;;;;;;5030303;28;20494;-65
2022/10/26 13:02:05;;;;;;;;;;;20.60;99.90;;;;;;5032852;28;20057;-65
2022/10/26 13:04:50;;;;;;;;;;;20.90;99.90;;;;;;5030158;28;20530;-65
2022/10/26 13:07:20;;;;;;;;;;;21.10;99.90;;;;;;5038570;28;19971;-65
2022/10/26 13:09:53;;;;;;;;;;;21.20;99.90;;;;;;5048541;28;19974;-64
2022/10/26 13:12:22;;;;;;;;;;;21.40;99.90;;;;;;5058897;28;20057;-64
2022/10/26 13:14:55;;;;;;;;;;;21.40;99.90;;;;;;5048769;28;19963;-65
2022/10/26 13:17:24;;;;;;;;;;;21.10;99.90;;;;;;5050816;28;20439;-64
2022/10/26 13:19:55;;;;;;;;;;;21.20;99.90;;;;;;5049818;28;20025;-65
2022/10/26 13:22:23;;;;;;;;;;;21.70;99.90;;;;;;5042277;28;20355;-65
2022/10/26 13:24:53;;;;;;;;;;;21.90;99.90;;;;;;5053786;28;20067;-65
2022/10/26 13:27:39;;;;;;;;;;;22.00;99.90;;;;;;5051852;28;19977;-65
2022/10/26 13:30:17;;;;;;;;;;;21.80;99.90;;;;;;5061475;28;20020;-65
2022/10/26 13:32:49;;;;;;;;;;;21.60;99.90;;;;;;5054306;28;19962;-65
2022/10/26 13:35:17;;;;;;;;;;;21.60;99.90;;;;;;5053871;28;19973;-65
2022/10/26 13:37:46;;;;;;;;;;;21.50;99.90;;;;;;5054661;28;20021;-65
2022/10/26 13:40:17;;;;;;;;;;;21.50;99.90;;;;;;5060176;28;19981;-65
2022/10/26 13:42:47;;;;;;;;;;;21.30;99.90;;;;;;5064353;28;20432;-65
2022/10/26 13:45:18;;;;;;;;;;;21.20;99.90;;;;;;5066552;28;19966;-65
2022/10/26 13:47:47;;;;;;;;;;;21.00;99.90;;;;;;5059753;28;20009;-64
2022/10/26 13:50:18;;;;;;;;;;;21.00;99.90;;;;;;5052498;28;20021;-65
2022/10/26 13:52:47;;;;;;;;;;;20.90;99.90;;;;;;5053216;28;19966;-65
2022/10/26 13:55:20;;;;;;;;;;;20.80;99.90;;;;;;5054677;28;20002;-64
2022/10/26 13:57:57;;;;;;;;;;;20.70;99.90;;;;;;5052028;28;20045;-65
2022/10/26 14:00:24;;;;;;;;;;;20.70;99.90;;;;;;5061622;28;20432;-65
2022/10/26 14:02:53;;;;;;;;;;;20.60;99.90;;;;;;5053653;28;20016;-65
2022/10/26 14:05:21;;;;;;;;;;;20.50;99.90;;;;;;5058427;28;20081;-65
2022/10/26 14:07:51;;;;;;;;;;;20.40;99.90;;;;;;5060325;28;20054;-65
2022/10/26 14:10:26;;;;;;;;;;;20.40;99.90;;;;;;5060048;28;19970;-64
2022/10/26 14:12:56;;;;;;;;;;;20.20;99.90;;;;;;5059857;28;19971;-65
2022/10/26 14:15:25;;;;;;;;;;;20.10;99.90;;;;;;5059655;28;20394;-65
2022/10/26 14:17:54;;;;;;;;;;;20.20;99.90;;;;;;5059729;28;20020;-65
2022/10/26 14:20:23;;;;;;;;;;;20.20;99.90;;;;;;5044712;28;19968;-65
2022/10/26 14:22:51;;;;;;;;;;;20.20;99.90;;;;;;5052885;28;20073;-65
2022/10/26 14:25:21;;;;;;;;;;;20.30;99.90;;;;;;5068495;28;20003;-65
2022/10/26 14:28:21;;;;;;;;;;;20.30;99.90;;;;;;5057037;28;19966;-65
2022/10/26 14:30:50;;;;;;;;;;;20.30;99.90;;;;;;5067266;28;20371;-65
2022/10/26 14:33:19;;;;;;;;;;;20.40;99.90;;;;;;5059890;28;19967;-65
2022/10/26 14:35:47;;;;;;;;;;;20.40;99.90;;;;;;5058086;28;19997;-65